首页
METAR-TAF:

METAR-TAF

机场 :

Hunt Field

Lander, 怀俄明州, 美国

纬度: 42-48-53N, 经度: 108-43-41W, 海拔: 1703米

当前天气观测

该预报发布于52分钟前的18:53 UTC
风速5节,风向东转东北
温度 17°C
湿度 48%
气压 1006 hPa
能見度: 16.1公里
天空无云

METAR: KLND 061853Z AUTO 07005KT 10SM CLR 17/06 A2971 RMK AO2 SLP989 T01670056

时间: 13:45 (19:45 UTC)

预报

该预报发布于2小时和6分钟前的17:39 UTC
预报有效从06日的 18点(UTC)到 07日的 18点(UTC)
风速14节,风向西转西南,有时为22节阵风
能見度: 10公里
散云层高于5000英尺
多云层高于7000英尺
附近有阵雨
短暂存在
从 06日的 18点(UTC)到 06日的 19点(UTC)
风速25节,风向多变,有时为45节阵风
能見度: 9.7公里
散云层高于3000英尺
多云层高于5000英尺, 积雨云.
雷暴, 小雨
从 06日的 1900点(UTC)
风速18节,风向南转西南,有时为28节阵风
能見度: 10公里
散云层高于5000英尺
多云层高于8000英尺
附近有阵雨
短暂存在
从 06日的 21点(UTC)到 07日的 01点(UTC)
风速25节,风向多变,有时为45节阵风
能見度: 8.0公里
散云层高于2500英尺
多云层高于4500英尺, 积雨云.
雷暴, 小雨
从 07日的 0300点(UTC)
风速14节,风向西转西南,有时为22节阵风
能見度: 10公里
散云层高于6000英尺
多云层高于9000英尺
从 07日的 1100点(UTC)
风速9节,风向西转西南
能見度: 10公里
散云层高于9000英尺
多云层高于20000英尺

TAF: KLND 061739Z 0618/0718 25014G22KT P6SM VCSH SCT050 BKN070 TEMPO 0618/0619 VRB25G45KT 6SM -TSRA SCT030 BKN050CB FM061900 21018G28KT P6SM VCSH SCT050 BKN080 TEMPO 0621/0701 VRB25G45KT 5SM -TSRA SCT025 BKN045CB FM070300 24014G22KT P6SM SCT060 BKN090 FM071100 24009KT P6SM SCT090 BKN200

超过4000个机场的气象观测和天气预报(METAR&TAF报告)。

可查询的气象台以黄色和红色小点在地图上表示。

将鼠标移到小点上方,可查看气象台名称。

然后点击查看天气观测和预报。

如需切换地图:点击带黑十字的绿色按钮放大地图;点击带横线的绿色按钮缩小地图;或者点击绿色箭头查看邻近地区的地图。


METAR-TAF: